createdAt,value
2017-11-05T00:06:04.330Z,20.10
2017-11-05T00:08:30.099Z,16.73
2017-11-05T00:11:19.819Z,18.97
2017-11-05T00:14:17.626Z,15.15
2017-11-05T00:30:09.687Z,20.30
2017-11-05T00:32:59.335Z,21.50
2017-11-05T00:35:56.295Z,26.15
2017-11-05T00:55:05.065Z,16.33
2017-11-05T00:58:02.925Z,17.25
2017-11-05T01:01:00.579Z,19.23
2017-11-05T01:03:58.221Z,18.58
2017-11-05T01:06:55.781Z,27.23
2017-11-05T01:09:53.626Z,19.92
2017-11-05T01:15:41.629Z,21.33
2017-11-05T01:35:16.306Z,21.15
2017-11-05T01:37:42.095Z,23.80
2017-11-05T01:40:31.307Z,19.87
2017-11-05T01:59:44.186Z,13.93
2017-11-05T02:02:33.071Z,19.13
2017-11-05T02:05:30.318Z,17.17
2017-11-05T02:21:20.915Z,10.02
2017-11-05T02:24:10.263Z,19.50
2017-11-05T02:27:08.099Z,12.82
2017-11-05T02:30:05.349Z,13.82
2017-11-05T02:33:02.147Z,13.45
2017-11-05T02:35:59.081Z,15.45
2017-11-05T02:38:56.865Z,18.95
2017-11-05T02:44:43.440Z,8.85
2017-11-05T02:47:32.411Z,12.30
2017-11-05T02:50:29.782Z,11.57
2017-11-05T02:53:27.545Z,10.75
2017-11-05T02:56:25.480Z,7.57
2017-11-05T02:59:22.742Z,8.82
2017-11-05T03:02:20.761Z,8.20
2017-11-05T03:05:17.416Z,8.60
2017-11-05T03:07:43.214Z,8.18
2017-11-05T03:10:32.304Z,6.73
2017-11-05T03:29:45.016Z,7.03
2017-11-05T03:32:34.689Z,9.23
2017-11-05T03:35:31.542Z,6.75
2017-11-05T03:38:29.296Z,4.20
2017-11-05T03:41:26.671Z,6.10
2017-11-05T03:44:24.218Z,6.03
2017-11-05T03:47:21.155Z,6.35
2017-11-05T03:50:18.098Z,4.87
2017-11-05T04:09:25.475Z,2.87
2017-11-05T04:12:22.423Z,3.67
2017-11-05T04:14:48.237Z,2.85
2017-11-05T04:34:24.134Z,4.05
2017-11-05T04:53:34.857Z,3.95
2017-11-05T04:59:21.767Z,8.77
2017-11-05T05:02:11.294Z,4.37
2017-11-05T05:21:23.184Z,2.53
2017-11-05T05:41:00.140Z,2.67
2017-11-05T05:43:25.967Z,2.25
2017-11-05T05:46:15.935Z,1.53
2017-11-05T05:49:13.712Z,2.35
2017-11-05T06:05:05.073Z,1.83
2017-11-05T06:07:54.270Z,3.50
2017-11-05T06:10:51.429Z,1.62
2017-11-05T06:26:42.608Z,1.27
2017-11-05T06:29:31.949Z,1.20
2017-11-05T06:48:45.501Z,1.45
2017-11-05T07:08:34.468Z,1.60
2017-11-05T07:11:00.254Z,3.85
2017-11-05T07:30:36.479Z,1.40
2017-11-05T07:49:53.539Z,3.05
2017-11-05T08:09:12.008Z,3.62
2017-11-05T08:28:29.509Z,5.82
2017-11-05T08:47:47.110Z,9.30
2017-11-05T09:07:03.762Z,1.35
2017-11-05T09:10:01.644Z,1.62
2017-11-05T09:29:13.279Z,1.48
2017-11-05T09:51:40.204Z,1.95
2017-11-05T10:10:53.704Z,1.25
2017-11-05T10:30:31.256Z,2.50
2017-11-05T10:49:49.635Z,1.90
2017-11-05T11:09:08.718Z,2.00
2017-11-05T11:28:27.516Z,2.50
2017-11-05T11:31:24.766Z,3.47
2017-11-05T11:40:33.584Z,2.35
2017-11-05T11:43:23.461Z,1.90
2017-11-05T11:46:20.888Z,5.05
2017-11-05T11:49:18.960Z,3.20
2017-11-05T12:02:16.095Z,5.32
2017-11-05T12:21:53.327Z,10.98
2017-11-05T12:41:02.528Z,5.05
2017-11-05T13:00:11.431Z,5.87
2017-11-05T13:19:28.207Z,3.72
2017-11-05T13:41:54.921Z,9.20
2017-11-05T14:01:05.164Z,9.95
2017-11-05T14:20:17.617Z,7.37
2017-11-05T14:39:29.415Z,6.00
2017-11-05T14:59:04.599Z,8.35
2017-11-05T15:21:32.242Z,10.13
2017-11-05T15:23:58.041Z,9.38
2017-11-05T15:43:34.212Z,20.60
2017-11-05T16:02:44.437Z,15.88
2017-11-05T16:21:56.956Z,27.55
2017-11-05T16:41:08.204Z,24.05
2017-11-05T16:44:05.368Z,21.12
2017-11-05T17:05:14.912Z,17.80
2017-11-05T17:07:40.684Z,17.47
2017-11-05T17:10:06.486Z,21.07
2017-11-05T17:12:32.264Z,20.97
2017-11-05T17:14:58.860Z,17.37
2017-11-05T17:17:24.664Z,11.68
2017-11-05T17:19:50.439Z,14.07
2017-11-05T17:22:16.283Z,12.63
2017-11-05T17:24:42.067Z,17.03
2017-11-05T17:27:07.857Z,20.90
2017-11-05T17:29:33.656Z,24.13
2017-11-05T17:31:59.430Z,14.50
2017-11-05T17:34:25.216Z,20.93
2017-11-05T17:36:50.999Z,18.97
2017-11-05T17:39:16.777Z,18.03
2017-11-05T17:41:42.526Z,21.23
2017-11-05T17:44:08.315Z,20.80
2017-11-05T17:46:34.092Z,24.23
2017-11-05T17:48:59.840Z,17.40
2017-11-05T17:51:25.596Z,23.23
2017-11-05T17:53:51.356Z,24.23
2017-11-05T17:56:17.138Z,17.03
2017-11-05T17:58:42.907Z,20.53
2017-11-05T18:01:08.685Z,30.20
2017-11-05T18:03:34.508Z,23.07
2017-11-05T18:06:00.301Z,17.47
2017-11-05T18:08:26.067Z,23.90
2017-11-05T18:10:51.829Z,17.97
2017-11-05T18:13:17.603Z,17.87
2017-11-05T18:15:44.963Z,18.50
2017-11-05T18:18:10.775Z,18.48
2017-11-05T18:20:36.593Z,20.63
2017-11-05T18:23:02.348Z,18.17
2017-11-05T18:25:28.131Z,18.67
2017-11-05T18:27:53.893Z,39.13
2017-11-05T18:30:19.667Z,19.27
2017-11-05T18:32:45.467Z,17.40
2017-11-05T18:35:11.279Z,16.30
2017-11-05T18:37:37.077Z,21.67
2017-11-05T18:40:02.890Z,15.60
2017-11-05T18:42:28.671Z,20.63
2017-11-05T18:44:54.435Z,13.70
2017-11-05T18:47:20.197Z,11.73
2017-11-05T18:49:45.993Z,18.67
2017-11-05T18:52:11.779Z,19.47
2017-11-05T18:54:37.535Z,23.47
2017-11-05T18:57:03.344Z,26.57
2017-11-05T18:59:29.139Z,22.03
2017-11-05T19:04:45.013Z,19.25
2017-11-05T19:07:10.837Z,17.80
2017-11-05T19:09:36.662Z,14.50
2017-11-05T19:12:02.439Z,14.90
2017-11-05T19:14:28.272Z,14.80
2017-11-05T19:16:54.138Z,12.50
2017-11-05T19:19:20.059Z,16.30
2017-11-05T19:21:45.817Z,16.83
2017-11-05T19:24:11.607Z,22.07
2017-11-05T19:26:37.374Z,20.80
2017-11-05T19:29:03.150Z,29.40
2017-11-05T19:31:28.957Z,30.23
2017-11-05T19:33:54.714Z,30.50
2017-11-05T19:36:20.508Z,52.87
2017-11-05T19:38:46.304Z,41.63
2017-11-05T19:41:12.075Z,32.00
2017-11-05T19:43:37.841Z,30.63
2017-11-05T19:46:03.617Z,31.57
2017-11-05T19:48:29.407Z,32.47
2017-11-05T19:50:55.187Z,27.07
2017-11-05T19:53:20.968Z,26.93
2017-11-05T19:55:46.787Z,28.53
2017-11-05T19:58:12.561Z,32.00
2017-11-05T20:00:38.373Z,32.67
2017-11-05T20:03:04.151Z,31.40
2017-11-05T20:05:29.991Z,28.00
2017-11-05T20:07:55.768Z,24.77
2017-11-05T20:10:21.539Z,22.37
2017-11-05T20:12:47.304Z,19.57
2017-11-05T20:15:13.068Z,18.10
2017-11-05T20:17:38.838Z,26.07
2017-11-05T20:20:04.615Z,17.63
2017-11-05T20:22:30.383Z,24.47
2017-11-05T20:24:56.179Z,17.93
2017-11-05T20:27:21.935Z,18.13
2017-11-05T20:29:47.699Z,16.93
2017-11-05T20:32:13.487Z,25.77
2017-11-05T20:34:39.252Z,25.20
2017-11-05T20:37:05.051Z,30.20
2017-11-05T20:39:30.815Z,20.63
2017-11-05T20:41:56.583Z,32.10
2017-11-05T20:44:22.386Z,28.00
2017-11-05T20:46:48.135Z,24.37
2017-11-05T20:49:13.883Z,22.70
2017-11-05T20:51:39.714Z,30.53
2017-11-05T20:54:05.488Z,23.27
2017-11-05T20:56:31.250Z,27.40
2017-11-05T20:58:57.014Z,24.97
2017-11-05T21:01:22.791Z,39.50
2017-11-05T21:03:48.548Z,23.83
2017-11-05T21:06:14.341Z,21.23
2017-11-05T21:08:40.099Z,21.70
2017-11-05T21:11:05.932Z,18.67
2017-11-05T21:13:31.808Z,22.10
2017-11-05T21:15:57.547Z,15.83
2017-11-05T21:18:23.347Z,16.20
2017-11-05T21:20:49.123Z,32.23
2017-11-05T21:23:14.894Z,24.23
2017-11-05T21:25:40.684Z,23.50
2017-11-05T21:28:06.492Z,16.53
2017-11-05T21:30:32.260Z,15.90
2017-11-05T21:32:58.051Z,9.80
2017-11-05T21:35:23.855Z,8.40
2017-11-05T21:37:49.640Z,11.60
2017-11-05T21:40:15.419Z,16.53
2017-11-05T21:42:41.187Z,8.10
2017-11-05T21:45:06.980Z,10.80
2017-11-05T21:47:32.746Z,10.83
2017-11-05T21:49:58.534Z,12.57
2017-11-05T21:52:24.304Z,7.47
2017-11-05T21:54:50.107Z,10.33
2017-11-05T21:57:15.888Z,7.50
2017-11-05T21:59:41.670Z,7.53
2017-11-05T22:02:07.468Z,9.93
2017-11-05T22:04:33.227Z,8.87
2017-11-05T22:06:58.987Z,11.77
2017-11-05T22:09:24.773Z,7.60
2017-11-05T22:11:50.523Z,14.77
2017-11-05T22:14:16.328Z,12.80
2017-11-05T22:16:42.136Z,12.30
2017-11-05T22:19:07.920Z,9.67
2017-11-05T22:21:33.677Z,10.77
2017-11-05T22:23:59.512Z,8.60
2017-11-05T22:26:25.346Z,7.40
2017-11-05T22:28:51.131Z,11.30
2017-11-05T22:31:16.936Z,11.03
2017-11-05T22:33:42.779Z,10.30
2017-11-05T22:36:08.589Z,13.10
2017-11-05T22:38:34.360Z,10.20
2017-11-05T22:41:00.135Z,8.33
2017-11-05T22:43:25.996Z,12.13
2017-11-05T22:45:51.780Z,13.00
2017-11-05T22:48:17.573Z,11.70
2017-11-05T22:50:43.343Z,10.67
2017-11-05T22:53:09.109Z,14.90
2017-11-05T22:55:34.876Z,12.30
2017-11-05T22:58:00.671Z,11.10
2017-11-05T23:00:26.416Z,16.80
2017-11-05T23:02:52.223Z,11.50
2017-11-05T23:05:18.027Z,13.70
2017-11-05T23:07:43.791Z,13.07
2017-11-05T23:10:09.565Z,11.07
2017-11-05T23:12:35.360Z,19.53
2017-11-05T23:15:01.123Z,17.57
2017-11-05T23:17:26.908Z,14.40
2017-11-05T23:19:52.676Z,16.03
2017-11-05T23:22:18.476Z,17.67
2017-11-05T23:24:44.230Z,11.40
2017-11-05T23:27:10.007Z,20.83
2017-11-05T23:29:35.807Z,17.13
2017-11-05T23:32:01.580Z,12.77
2017-11-05T23:34:27.331Z,14.47
2017-11-05T23:36:53.127Z,18.70
2017-11-05T23:39:18.903Z,21.30
2017-11-05T23:41:44.713Z,17.13
2017-11-05T23:44:10.482Z,14.80
2017-11-05T23:46:36.260Z,16.40
2017-11-05T23:49:02.060Z,17.70
2017-11-05T23:51:27.844Z,17.53
2017-11-05T23:53:53.631Z,17.23
2017-11-05T23:56:19.430Z,14.87
2017-11-05T23:58:45.168Z,17.60
